sensor_id;sensor_type;location;lat;lon;timestamp;pressure;altitude;pressure_sealevel;temperature;humidity
72414;BME280;60995;52.154;4.498;2024-01-16T00:00:15;100447.06;;;3.08;100.00
72414;BME280;60995;52.154;4.498;2024-01-16T00:02:31;100419.94;;;3.12;100.00
72414;BME280;60995;52.154;4.498;2024-01-16T00:04:47;100410.94;;;3.13;100.00
72414;BME280;60995;52.154;4.498;2024-01-16T00:07:04;100416.31;;;3.13;100.00
72414;BME280;60995;52.154;4.498;2024-01-16T00:09:20;100412.97;;;3.10;100.00
72414;BME280;60995;52.154;4.498;2024-01-16T00:11:43;100439.09;;;3.06;100.00
72414;BME280;60995;52.154;4.498;2024-01-16T00:14:00;100450.03;;;3.03;100.00
72414;BME280;60995;52.154;4.498;2024-01-16T00:16:16;100459.97;;;3.01;100.00
72414;BME280;60995;52.154;4.498;2024-01-16T00:18:32;100502.47;;;3.07;100.00
72414;BME280;60995;52.154;4.498;2024-01-16T00:20:49;100575.25;;;3.16;100.00
72414;BME280;60995;52.154;4.498;2024-01-16T00:23:05;100635.09;;;3.02;100.00
72414;BME280;60995;52.154;4.498;2024-01-16T00:25:21;100698.19;;;2.77;100.00
72414;BME280;60995;52.154;4.498;2024-01-16T00:27:38;100759.91;;;2.75;100.00
72414;BME280;60995;52.154;4.498;2024-01-16T00:29:54;100807.88;;;2.64;100.00
72414;BME280;60995;52.154;4.498;2024-01-16T00:32:10;100848.59;;;2.71;100.00
72414;BME280;60995;52.154;4.498;2024-01-16T00:34:31;100862.25;;;2.66;100.00
72414;BME280;60995;52.154;4.498;2024-01-16T00:36:47;100869.31;;;2.67;100.00
72414;BME280;60995;52.154;4.498;2024-01-16T00:39:04;100868.28;;;2.70;100.00
72414;BME280;60995;52.154;4.498;2024-01-16T00:41:20;100874.25;;;2.59;100.00
72414;BME280;60995;52.154;4.498;2024-01-16T00:43:36;100871.06;;;2.52;100.00
72414;BME280;60995;52.154;4.498;2024-01-16T00:45:52;100866.91;;;2.46;100.00
72414;BME280;60995;52.154;4.498;2024-01-16T00:48:09;100873.03;;;2.48;100.00
72414;BME280;60995;52.154;4.498;2024-01-16T00:50:29;100876.75;;;2.46;100.00
72414;BME280;60995;52.154;4.498;2024-01-16T00:52:45;100875.63;;;2.50;100.00
72414;BME280;60995;52.154;4.498;2024-01-16T00:55:02;100875.38;;;2.55;100.00
72414;BME280;60995;52.154;4.498;2024-01-16T00:57:18;100862.94;;;2.54;100.00
72414;BME280;60995;52.154;4.498;2024-01-16T00:59:36;100861.91;;;2.56;100.00
72414;BME280;60995;52.154;4.498;2024-01-16T01:01:53;100848.94;;;2.48;100.00
72414;BME280;60995;52.154;4.498;2024-01-16T01:04:09;100857.25;;;2.60;100.00
72414;BME280;60995;52.154;4.498;2024-01-16T01:06:25;100860.84;;;2.59;100.00
72414;BME280;60995;52.154;4.498;2024-01-16T01:08:41;100857.25;;;2.60;100.00
72414;BME280;60995;52.154;4.498;2024-01-16T01:10:58;100852.22;;;2.54;100.00
72414;BME280;60995;52.154;4.498;2024-01-16T01:13:14;100885.66;;;2.46;100.00
72414;BME280;60995;52.154;4.498;2024-01-16T01:15:30;100890.72;;;2.35;100.00
72414;BME280;60995;52.154;4.498;2024-01-16T01:17:50;100912.66;;;2.26;100.00
72414;BME280;60995;52.154;4.498;2024-01-16T01:20:08;100903.34;;;1.82;100.00
72414;BME280;60995;52.154;4.498;2024-01-16T01:22:25;100940.47;;;1.71;100.00
72414;BME280;60995;52.154;4.498;2024-01-16T01:24:41;100948.41;;;1.55;100.00
72414;BME280;60995;52.154;4.498;2024-01-16T01:26:57;100969.03;;;1.53;100.00
72414;BME280;60995;52.154;4.498;2024-01-16T01:29:13;100976.97;;;1.54;100.00
72414;BME280;60995;52.154;4.498;2024-01-16T01:31:30;100997.09;;;1.61;100.00
72414;BME280;60995;52.154;4.498;2024-01-16T01:33:46;100995.16;;;1.65;100.00
72414;BME280;60995;52.154;4.498;2024-01-16T01:36:03;101013.78;;;1.67;100.00
72414;BME280;60995;52.154;4.498;2024-01-16T01:38:20;101011.00;;;1.51;100.00
72414;BME280;60995;52.154;4.498;2024-01-16T01:40:36;101013.22;;;1.60;100.00
72414;BME280;60995;52.154;4.498;2024-01-16T01:42:52;101031.66;;;1.66;100.00
72414;BME280;60995;52.154;4.498;2024-01-16T01:45:10;101036.72;;;1.72;100.00
72414;BME280;60995;52.154;4.498;2024-01-16T01:47:27;101037.13;;;1.63;100.00
72414;BME280;60995;52.154;4.498;2024-01-16T01:49:43;101052.31;;;1.81;100.00
72414;BME280;60995;52.154;4.498;2024-01-16T01:51:59;101052.31;;;1.81;100.00
72414;BME280;60995;52.154;4.498;2024-01-16T01:54:16;101047.66;;;1.85;100.00
72414;BME280;60995;52.154;4.498;2024-01-16T01:56:36;101047.44;;;1.90;100.00
72414;BME280;60995;52.154;4.498;2024-01-16T01:58:54;101049.94;;;1.93;100.00
72414;BME280;60995;52.154;4.498;2024-01-16T02:01:14;101039.41;;;2.07;100.00
72414;BME280;60995;52.154;4.498;2024-01-16T02:03:42;101031.88;;;2.15;100.00
72414;BME280;60995;52.154;4.498;2024-01-16T02:06:00;101013.25;;;2.12;100.00
72414;BME280;60995;52.154;4.498;2024-01-16T02:08:16;100997.28;;;2.11;100.00
72414;BME280;60995;52.154;4.498;2024-01-16T02:10:36;100975.03;;;2.10;100.00
72414;BME280;60995;52.154;4.498;2024-01-16T02:12:54;100950.06;;;2.10;100.00
72414;BME280;60995;52.154;4.498;2024-01-16T02:15:11;100942.09;;;2.08;100.00
72414;BME280;60995;52.154;4.498;2024-01-16T02:17:28;100926.69;;;1.96;100.00
72414;BME280;60995;52.154;4.498;2024-01-16T02:19:44;100935.50;;;1.98;100.00
72414;BME280;60995;52.154;4.498;2024-01-16T02:22:04;100941.25;;;2.08;100.00
72414;BME280;60995;52.154;4.498;2024-01-16T02:24:29;100951.25;;;2.04;100.00
72414;BME280;60995;52.154;4.498;2024-01-16T02:26:45;100942.69;;;1.97;100.00
72414;BME280;60995;52.154;4.498;2024-01-16T02:29:02;100948.66;;;2.03;100.00
72414;BME280;60995;52.154;4.498;2024-01-16T02:31:20;100944.63;;;1.94;100.00
72414;BME280;60995;52.154;4.498;2024-01-16T02:33:36;100953.28;;;1.99;100.00
72414;BME280;60995;52.154;4.498;2024-01-16T02:35:53;100949.53;;;1.86;100.00
72414;BME280;60995;52.154;4.498;2024-01-16T02:38:10;100963.06;;;1.83;100.00
72414;BME280;60995;52.154;4.498;2024-01-16T02:40:26;100972.72;;;1.85;100.00
72414;BME280;60995;52.154;4.498;2024-01-16T02:42:42;100976.91;;;1.91;100.00
72414;BME280;60995;52.154;4.498;2024-01-16T02:44:59;100985.66;;;1.94;100.00
72414;BME280;60995;52.154;4.498;2024-01-16T02:47:15;100997.78;;;2.02;100.00
72414;BME280;60995;52.154;4.498;2024-01-16T02:49:31;101006.50;;;2.05;100.00
72414;BME280;60995;52.154;4.498;2024-01-16T02:51:48;101012.47;;;2.28;100.00
72414;BME280;60995;52.154;4.498;2024-01-16T02:54:06;101024.97;;;2.45;100.00
72414;BME280;60995;52.154;4.498;2024-01-16T02:56:23;100998.94;;;2.31;100.00
72414;BME280;60995;52.154;4.498;2024-01-16T02:58:40;100986.31;;;2.33;100.00
72414;BME280;60995;52.154;4.498;2024-01-16T03:00:57;100977.66;;;2.45;100.00
72414;BME280;60995;52.154;4.498;2024-01-16T03:03:13;100971.78;;;2.39;100.00
72414;BME280;60995;52.154;4.498;2024-01-16T03:05:30;100963.97;;;2.34;100.00
72414;BME280;60995;52.154;4.498;2024-01-16T03:07:47;100959.09;;;2.25;100.00
72414;BME280;60995;52.154;4.498;2024-01-16T03:10:03;100977.28;;;2.36;100.00
72414;BME280;60995;52.154;4.498;2024-01-16T03:12:20;100979.84;;;2.37;100.00
72414;BME280;60995;52.154;4.498;2024-01-16T03:14:36;100983.50;;;2.36;100.00
72414;BME280;60995;52.154;4.498;2024-01-16T03:16:54;101000.97;;;2.43;100.00
72414;BME280;60995;52.154;4.498;2024-01-16T03:19:12;100986.00;;;2.39;100.00
72414;BME280;60995;52.154;4.498;2024-01-16T03:21:28;100990.25;;;2.43;100.00
72414;BME280;60995;52.154;4.498;2024-01-16T03:23:44;101000.66;;;2.50;100.00
72414;BME280;60995;52.154;4.498;2024-01-16T03:26:01;100986.09;;;2.38;100.00
72414;BME280;60995;52.154;4.498;2024-01-16T03:28:17;100974.69;;;2.34;100.00
72414;BME280;60995;52.154;4.498;2024-01-16T03:30:33;100977.19;;;2.37;100.00
72414;BME280;60995;52.154;4.498;2024-01-16T03:32:50;100969.78;;;2.42;100.00
72414;BME280;60995;52.154;4.498;2024-01-16T03:35:06;100965.03;;;2.47;100.00
72414;BME280;60995;52.154;4.498;2024-01-16T03:37:23;100959.63;;;2.49;100.00
72414;BME280;60995;52.154;4.498;2024-01-16T03:39:39;100968.41;;;2.51;100.00
72414;BME280;60995;52.154;4.498;2024-01-16T03:41:55;100963.16;;;2.50;100.00
72414;BME280;60995;52.154;4.498;2024-01-16T03:44:11;100966.28;;;2.58;100.00
72414;BME280;60995;52.154;4.498;2024-01-16T03:46:28;100973.28;;;2.60;100.00
72414;BME280;60995;52.154;4.498;2024-01-16T03:48:44;100957.78;;;2.50;100.00
72414;BME280;60995;52.154;4.498;2024-01-16T03:51:00;100954.00;;;2.54;100.00
72414;BME280;60995;52.154;4.498;2024-01-16T03:53:18;100952.13;;;2.56;100.00
72414;BME280;60995;52.154;4.498;2024-01-16T03:55:34;100963.25;;;2.64;100.00
72414;BME280;60995;52.154;4.498;2024-01-16T03:57:50;100948.34;;;2.42;100.00
72414;BME280;60995;52.154;4.498;2024-01-16T04:00:07;100951.81;;;2.44;100.00
72414;BME280;60995;52.154;4.498;2024-01-16T04:02:27;100953.25;;;2.34;100.00
72414;BME280;60995;52.154;4.498;2024-01-16T04:04:43;100970.00;;;2.22;100.00
72414;BME280;60995;52.154;4.498;2024-01-16T04:06:59;100991.78;;;2.31;100.00
72414;BME280;60995;52.154;4.498;2024-01-16T04:09:16;100984.44;;;2.35;100.00
72414;BME280;60995;52.154;4.498;2024-01-16T04:11:32;100999.88;;;2.30;100.00
72414;BME280;60995;52.154;4.498;2024-01-16T04:13:48;100999.09;;;2.28;100.00
72414;BME280;60995;52.154;4.498;2024-01-16T04:16:06;101007.13;;;2.28;100.00
72414;BME280;60995;52.154;4.498;2024-01-16T04:18:22;101017.59;;;2.33;100.00
72414;BME280;60995;52.154;4.498;2024-01-16T04:20:39;101006.00;;;2.32;100.00
72414;BME280;60995;52.154;4.498;2024-01-16T04:22:56;101017.91;;;2.44;100.00
72414;BME280;60995;52.154;4.498;2024-01-16T04:25:13;101009.19;;;2.40;100.00
72414;BME280;60995;52.154;4.498;2024-01-16T04:27:31;101008.47;;;2.37;100.00
72414;BME280;60995;52.154;4.498;2024-01-16T04:29:48;100995.94;;;2.37;100.00
72414;BME280;60995;52.154;4.498;2024-01-16T04:32:04;100983.44;;;2.20;100.00
72414;BME280;60995;52.154;4.498;2024-01-16T04:34:20;100983.28;;;2.23;100.00
72414;BME280;60995;52.154;4.498;2024-01-16T04:36:37;100974.56;;;2.02;100.00
72414;BME280;60995;52.154;4.498;2024-01-16T04:38:53;100961.31;;;1.99;100.00
72414;BME280;60995;52.154;4.498;2024-01-16T04:41:09;100936.16;;;1.86;100.00
72414;BME280;60995;52.154;4.498;2024-01-16T04:43:25;100916.22;;;1.91;100.00
72414;BME280;60995;52.154;4.498;2024-01-16T04:45:42;100907.34;;;1.91;100.00
72414;BME280;60995;52.154;4.498;2024-01-16T04:47:58;100907.66;;;2.02;100.00
72414;BME280;60995;52.154;4.498;2024-01-16T04:50:15;100910.13;;;2.23;100.00
72414;BME280;60995;52.154;4.498;2024-01-16T04:52:31;100895.69;;;2.25;100.00
72414;BME280;60995;52.154;4.498;2024-01-16T04:54:48;100888.81;;;2.37;100.00
72414;BME280;60995;52.154;4.498;2024-01-16T04:57:04;100893.84;;;2.43;100.00
72414;BME280;60995;52.154;4.498;2024-01-16T04:59:20;100871.81;;;2.38;100.00
72414;BME280;60995;52.154;4.498;2024-01-16T05:01:37;100866.19;;;2.27;100.00
72414;BME280;60995;52.154;4.498;2024-01-16T05:03:54;100850.28;;;2.24;100.00
72414;BME280;60995;52.154;4.498;2024-01-16T05:06:14;100854.63;;;2.42;100.00
72414;BME280;60995;52.154;4.498;2024-01-16T05:08:31;100844.91;;;2.24;100.00
72414;BME280;60995;52.154;4.498;2024-01-16T05:10:47;100836.28;;;2.19;100.00
72414;BME280;60995;52.154;4.498;2024-01-16T05:13:03;100820.16;;;2.36;100.00
72414;BME280;60995;52.154;4.498;2024-01-16T05:15:20;100829.75;;;2.40;100.00
72414;BME280;60995;52.154;4.498;2024-01-16T05:17:36;100834.06;;;2.59;100.00
72414;BME280;60995;52.154;4.498;2024-01-16T05:19:53;100818.53;;;2.50;100.00
72414;BME280;60995;52.154;4.498;2024-01-16T05:22:10;100811.72;;;2.44;100.00
72414;BME280;60995;52.154;4.498;2024-01-16T05:24:26;100817.81;;;2.46;100.00
72414;BME280;60995;52.154;4.498;2024-01-16T05:26:43;100816.97;;;2.45;100.00
72414;BME280;60995;52.154;4.498;2024-01-16T05:28:59;100812.47;;;2.30;100.00
72414;BME280;60995;52.154;4.498;2024-01-16T05:31:15;100832.16;;;2.45;100.00
72414;BME280;60995;52.154;4.498;2024-01-16T05:33:31;100823.25;;;2.28;100.00
72414;BME280;60995;52.154;4.498;2024-01-16T05:35:48;100834.22;;;2.24;100.00
72414;BME280;60995;52.154;4.498;2024-01-16T05:38:04;100850.06;;;2.11;100.00
72414;BME280;60995;52.154;4.498;2024-01-16T05:40:21;100864.16;;;2.14;100.00
72414;BME280;60995;52.154;4.498;2024-01-16T05:42:38;100873.72;;;2.03;100.00
72414;BME280;60995;52.154;4.498;2024-01-16T05:44:54;100884.75;;;1.96;100.00
72414;BME280;60995;52.154;4.498;2024-01-16T05:47:10;100908.59;;;2.01;100.00
72414;BME280;60995;52.154;4.498;2024-01-16T05:49:27;100910.66;;;1.96;100.00
72414;BME280;60995;52.154;4.498;2024-01-16T05:51:43;100925.81;;;1.95;100.00
72414;BME280;60995;52.154;4.498;2024-01-16T05:53:59;100916.63;;;1.84;100.00
72414;BME280;60995;52.154;4.498;2024-01-16T05:56:16;100929.91;;;1.85;100.00
72414;BME280;60995;52.154;4.498;2024-01-16T05:58:32;100934.59;;;1.81;100.00
72414;BME280;60995;52.154;4.498;2024-01-16T06:00:53;100936.63;;;1.76;100.00
72414;BME280;60995;52.154;4.498;2024-01-16T06:03:09;100947.88;;;1.83;100.00
72414;BME280;60995;52.154;4.498;2024-01-16T06:05:25;100953.22;;;1.83;100.00
72414;BME280;60995;52.154;4.498;2024-01-16T06:07:41;100956.84;;;1.82;100.00
72414;BME280;60995;52.154;4.498;2024-01-16T06:09:59;100964.41;;;2.09;100.00
72414;BME280;60995;52.154;4.498;2024-01-16T06:12:15;100957.63;;;2.02;100.00
72414;BME280;60995;52.154;4.498;2024-01-16T06:14:31;100957.25;;;1.92;100.00
72414;BME280;60995;52.154;4.498;2024-01-16T06:16:48;100966.59;;;2.01;100.00
72414;BME280;60995;52.154;4.498;2024-01-16T06:19:04;100966.03;;;1.94;100.00
72414;BME280;60995;52.154;4.498;2024-01-16T06:21:21;100964.47;;;1.90;100.00
72414;BME280;60995;52.154;4.498;2024-01-16T06:23:37;100966.34;;;1.88;100.00
72414;BME280;60995;52.154;4.498;2024-01-16T06:25:54;100976.91;;;1.91;100.00
72414;BME280;60995;52.154;4.498;2024-01-16T06:28:10;100980.84;;;2.01;100.00
72414;BME280;60995;52.154;4.498;2024-01-16T06:30:26;100979.75;;;2.05;100.00
72414;BME280;60995;52.154;4.498;2024-01-16T06:32:43;100953.47;;;1.96;100.00
72414;BME280;60995;52.154;4.498;2024-01-16T06:35:00;100921.03;;;2.02;100.00
72414;BME280;60995;52.154;4.498;2024-01-16T06:37:16;100869.06;;;2.06;100.00
72414;BME280;60995;52.154;4.498;2024-01-16T06:39:32;100801.97;;;2.09;100.00
72414;BME280;60995;52.154;4.498;2024-01-16T06:41:49;100718.69;;;2.15;100.00
72414;BME280;60995;52.154;4.498;2024-01-16T06:44:05;100665.84;;;2.19;100.00
72414;BME280;60995;52.154;4.498;2024-01-16T06:46:21;100612.41;;;2.32;100.00
72414;BME280;60995;52.154;4.498;2024-01-16T06:48:38;100577.03;;;2.27;100.00
72414;BME280;60995;52.154;4.498;2024-01-16T06:50:54;100551.72;;;2.33;100.00
72414;BME280;60995;52.154;4.498;2024-01-16T06:53:10;100505.31;;;2.32;100.00
72414;BME280;60995;52.154;4.498;2024-01-16T06:55:27;100473.78;;;2.37;100.00
72414;BME280;60995;52.154;4.498;2024-01-16T06:57:44;100474.56;;;2.54;100.00
72414;BME280;60995;52.154;4.498;2024-01-16T07:00:02;100455.44;;;2.45;100.00
72414;BME280;60995;52.154;4.498;2024-01-16T07:02:19;100440.53;;;2.41;100.00
72414;BME280;60995;52.154;4.498;2024-01-16T07:04:35;100468.47;;;2.52;100.00
72414;BME280;60995;52.154;4.498;2024-01-16T07:06:51;100483.38;;;2.56;100.00
72414;BME280;60995;52.154;4.498;2024-01-16T07:09:08;100486.13;;;2.54;100.00
72414;BME280;60995;52.154;4.498;2024-01-16T07:11:26;100495.25;;;2.52;100.00
72414;BME280;60995;52.154;4.498;2024-01-16T07:13:43;100501.13;;;2.42;100.00
72414;BME280;60995;52.154;4.498;2024-01-16T07:15:59;100493.41;;;2.38;100.00
72414;BME280;60995;52.154;4.498;2024-01-16T07:18:16;100486.09;;;2.40;100.00
72414;BME280;60995;52.154;4.498;2024-01-16T07:20:32;100488.31;;;2.47;100.00
72414;BME280;60995;52.154;4.498;2024-01-16T07:22:48;100469.00;;;2.42;100.00
72414;BME280;60995;52.154;4.498;2024-01-16T07:25:05;100471.78;;;2.41;100.00
72414;BME280;60995;52.154;4.498;2024-01-16T07:27:22;100456.59;;;2.41;100.00
72414;BME280;60995;52.154;4.498;2024-01-16T07:29:38;100451.03;;;2.44;100.00
72414;BME280;60995;52.154;4.498;2024-01-16T07:31:55;100463.56;;;2.44;100.00
72414;BME280;60995;52.154;4.498;2024-01-16T07:34:11;100454.66;;;2.43;100.00
72414;BME280;60995;52.154;4.498;2024-01-16T07:36:28;100451.97;;;2.43;100.00
72414;BME280;60995;52.154;4.498;2024-01-16T07:38:44;100452.94;;;2.42;100.00
72414;BME280;60995;52.154;4.498;2024-01-16T07:41:01;100448.81;;;2.37;100.00
72414;BME280;60995;52.154;4.498;2024-01-16T07:43:17;100464.69;;;2.40;100.00
72414;BME280;60995;52.154;4.498;2024-01-16T07:45:34;100463.94;;;2.52;100.00
72414;BME280;60995;52.154;4.498;2024-01-16T07:47:50;100469.97;;;2.56;100.00
72414;BME280;60995;52.154;4.498;2024-01-16T07:50:06;100455.25;;;2.48;100.00
72414;BME280;60995;52.154;4.498;2024-01-16T07:52:23;100458.88;;;2.62;100.00
72414;BME280;60995;52.154;4.498;2024-01-16T07:54:39;100465.56;;;2.69;100.00
72414;BME280;60995;52.154;4.498;2024-01-16T07:56:55;100464.44;;;2.59;100.00
72414;BME280;60995;52.154;4.498;2024-01-16T07:59:12;100469.69;;;2.75;100.00
72414;BME280;60995;52.154;4.498;2024-01-16T08:01:28;100475.72;;;2.78;100.00
72414;BME280;60995;52.154;4.498;2024-01-16T08:03:45;100455.06;;;2.66;100.00
72414;BME280;60995;52.154;4.498;2024-01-16T08:06:01;100443.47;;;2.65;100.00
72414;BME280;60995;52.154;4.498;2024-01-16T08:08:18;100438.88;;;2.68;100.00
72414;BME280;60995;52.154;4.498;2024-01-16T08:10:34;100452.75;;;2.74;100.00
72414;BME280;60995;52.154;4.498;2024-01-16T08:12:51;100429.59;;;2.73;100.00
72414;BME280;60995;52.154;4.498;2024-01-16T08:15:07;100424.03;;;2.76;100.00
72414;BME280;60995;52.154;4.498;2024-01-16T08:17:24;100408.53;;;2.67;100.00
72414;BME280;60995;52.154;4.498;2024-01-16T08:19:41;100411.78;;;2.72;100.00
72414;BME280;60995;52.154;4.498;2024-01-16T08:21:57;100407.00;;;2.77;100.00
72414;BME280;60995;52.154;4.498;2024-01-16T08:24:13;100379.63;;;2.72;100.00
72414;BME280;60995;52.154;4.498;2024-01-16T08:26:30;100366.34;;;2.71;100.00
72414;BME280;60995;52.154;4.498;2024-01-16T08:28:46;100360.28;;;2.81;100.00
72414;BME280;60995;52.154;4.498;2024-01-16T08:31:02;100352.25;;;2.81;100.00
72414;BME280;60995;52.154;4.498;2024-01-16T08:33:25;100335.78;;;2.88;100.00
72414;BME280;60995;52.154;4.498;2024-01-16T08:35:42;100323.91;;;2.92;100.00
72414;BME280;60995;52.154;4.498;2024-01-16T08:37:58;100304.06;;;2.94;100.00
72414;BME280;60995;52.154;4.498;2024-01-16T08:40:15;100310.31;;;2.95;100.00
72414;BME280;60995;52.154;4.498;2024-01-16T08:42:31;100311.59;;;3.02;100.00
72414;BME280;60995;52.154;4.498;2024-01-16T08:44:47;100292.00;;;3.02;100.00
72414;BME280;60995;52.154;4.498;2024-01-16T08:47:03;100271.84;;;3.09;100.00
72414;BME280;60995;52.154;4.498;2024-01-16T08:49:21;100264.69;;;3.09;100.00
72414;BME280;60995;52.154;4.498;2024-01-16T08:51:38;100268.56;;;3.18;100.00
72414;BME280;60995;52.154;4.498;2024-01-16T08:53:54;100229.31;;;3.17;100.00
72414;BME280;60995;52.154;4.498;2024-01-16T08:56:11;100208.19;;;3.25;100.00
72414;BME280;60995;52.154;4.498;2024-01-16T08:58:28;100206.78;;;3.45;100.00
72414;BME280;60995;52.154;4.498;2024-01-16T09:00:44;100195.88;;;3.48;100.00
72414;BME280;60995;52.154;4.498;2024-01-16T09:03:00;100181.06;;;3.43;100.00
72414;BME280;60995;52.154;4.498;2024-01-16T09:05:17;100173.75;;;3.58;100.00
72414;BME280;60995;52.154;4.498;2024-01-16T09:07:33;100171.59;;;3.76;100.00
72414;BME280;60995;52.154;4.498;2024-01-16T09:09:50;100171.75;;;3.86;100.00
72414;BME280;60995;52.154;4.498;2024-01-16T09:12:06;100174.97;;;3.91;100.00
72414;BME280;60995;52.154;4.498;2024-01-16T09:14:23;100170.06;;;3.85;100.00
72414;BME280;60995;52.154;4.498;2024-01-16T09:16:41;100151.16;;;3.86;100.00
72414;BME280;60995;52.154;4.498;2024-01-16T09:18:58;100160.53;;;4.18;100.00
72414;BME280;60995;52.154;4.498;2024-01-16T09:21:14;100148.13;;;4.28;100.00
72414;BME280;60995;52.154;4.498;2024-01-16T09:23:30;100160.41;;;4.43;100.00
72414;BME280;60995;52.154;4.498;2024-01-16T09:25:47;100172.19;;;4.54;100.00
72414;BME280;60995;52.154;4.498;2024-01-16T09:28:03;100180.03;;;4.20;100.00
72414;BME280;60995;52.154;4.498;2024-01-16T09:30:19;100190.66;;;4.34;100.00
72414;BME280;60995;52.154;4.498;2024-01-16T09:32:38;100179.81;;;4.47;100.00
72414;BME280;60995;52.154;4.498;2024-01-16T09:34:54;100197.78;;;4.46;100.00
72414;BME280;60995;52.154;4.498;2024-01-16T09:37:10;100194.00;;;4.73;100.00
72414;BME280;60995;52.154;4.498;2024-01-16T09:39:30;100205.28;;;4.90;100.00
72414;BME280;60995;52.154;4.498;2024-01-16T09:41:47;100199.13;;;5.82;100.00
72414;BME280;60995;52.154;4.498;2024-01-16T09:44:05;100187.28;;;7.47;100.00
72414;BME280;60995;52.154;4.498;2024-01-16T09:46:23;100163.72;;;9.08;100.00
72414;BME280;60995;52.154;4.498;2024-01-16T09:48:41;100308.97;;;8.38;100.00
72414;BME280;60995;52.154;4.498;2024-01-16T09:51:01;100393.84;;;8.04;100.00
72414;BME280;60995;52.154;4.498;2024-01-16T09:53:17;100486.22;;;6.65;100.00
72414;BME280;60995;52.154;4.498;2024-01-16T09:55:34;100474.91;;;6.49;100.00
72414;BME280;60995;52.154;4.498;2024-01-16T09:57:52;100366.13;;;6.16;100.00
72414;BME280;60995;52.154;4.498;2024-01-16T10:00:12;100344.81;;;6.35;100.00
72414;BME280;60995;52.154;4.498;2024-01-16T10:02:29;100387.94;;;7.36;100.00
72414;BME280;60995;52.154;4.498;2024-01-16T10:04:45;100384.13;;;7.92;100.00
72414;BME280;60995;52.154;4.498;2024-01-16T10:07:04;100595.19;;;8.64;100.00
72414;BME280;60995;52.154;4.498;2024-01-16T10:09:21;100704.91;;;8.34;100.00
72414;BME280;60995;52.154;4.498;2024-01-16T10:11:38;100759.63;;;9.77;100.00
72414;BME280;60995;52.154;4.498;2024-01-16T10:13:58;100808.47;;;11.19;100.00
72414;BME280;60995;52.154;4.498;2024-01-16T10:16:14;100861.03;;;10.98;100.00
72414;BME280;60995;52.154;4.498;2024-01-16T10:18:30;100860.56;;;10.42;100.00
72414;BME280;60995;52.154;4.498;2024-01-16T10:20:47;100862.34;;;10.53;100.00
72414;BME280;60995;52.154;4.498;2024-01-16T10:23:04;100845.28;;;10.10;100.00
72414;BME280;60995;52.154;4.498;2024-01-16T10:25:20;100837.53;;;10.06;100.00
72414;BME280;60995;52.154;4.498;2024-01-16T10:27:39;100859.41;;;10.35;100.00
72414;BME280;60995;52.154;4.498;2024-01-16T10:29:57;100844.84;;;10.36;100.00
72414;BME280;60995;52.154;4.498;2024-01-16T10:32:27;100848.41;;;10.68;100.00
72414;BME280;60995;52.154;4.498;2024-01-16T10:34:45;100803.47;;;9.92;100.00
72414;BME280;60995;52.154;4.498;2024-01-16T10:37:01;100777.13;;;9.09;100.00
72414;BME280;60995;52.154;4.498;2024-01-16T10:39:19;100783.09;;;8.92;100.00
72414;BME280;60995;52.154;4.498;2024-01-16T10:41:36;100766.91;;;8.69;100.00
72414;BME280;60995;52.154;4.498;2024-01-16T10:44:06;100760.34;;;8.28;100.00
72414;BME280;60995;52.154;4.498;2024-01-16T10:46:23;100761.84;;;7.98;100.00
72414;BME280;60995;52.154;4.498;2024-01-16T10:48:42;100741.13;;;7.40;100.00
72414;BME280;60995;52.154;4.498;2024-01-16T10:51:16;100744.84;;;7.39;100.00
72414;BME280;60995;52.154;4.498;2024-01-16T10:53:34;100789.63;;;9.22;100.00
72414;BME280;60995;52.154;4.498;2024-01-16T10:55:51;100791.63;;;9.41;100.00
72414;BME280;60995;52.154;4.498;2024-01-16T10:58:09;100778.66;;;9.02;100.00
72414;BME280;60995;52.154;4.498;2024-01-16T11:00:30;100740.72;;;7.92;100.00
72414;BME280;60995;52.154;4.498;2024-01-16T11:05:22;100786.47;;;9.17;100.00
72414;BME280;60995;52.154;4.498;2024-01-16T11:07:40;100749.41;;;8.30;100.00
72414;BME280;60995;52.154;4.498;2024-01-16T11:09:59;100708.97;;;7.26;100.00
72414;BME280;60995;52.154;4.498;2024-01-16T11:12:16;100727.97;;;7.24;100.00
72414;BME280;60995;52.154;4.498;2024-01-16T11:14:36;100705.19;;;6.57;100.00
72414;BME280;60995;52.154;4.498;2024-01-16T11:16:55;100710.50;;;6.70;100.00
72414;BME280;60995;52.154;4.498;2024-01-16T11:19:12;100726.03;;;6.91;100.00
72414;BME280;60995;52.154;4.498;2024-01-16T11:21:29;100753.25;;;7.93;100.00
72414;BME280;60995;52.154;4.498;2024-01-16T11:23:46;100759.72;;;8.58;100.00
72414;BME280;60995;52.154;4.498;2024-01-16T11:26:26;100756.38;;;8.66;100.00
72414;BME280;60995;52.154;4.498;2024-01-16T11:28:43;100747.22;;;8.46;100.00
72414;BME280;60995;52.154;4.498;2024-01-16T11:33:49;100730.09;;;8.34;100.00
72414;BME280;60995;52.154;4.498;2024-01-16T11:39:21;100751.44;;;8.71;100.00
72414;BME280;60995;52.154;4.498;2024-01-16T11:41:51;100742.59;;;8.69;100.00
72414;BME280;60995;52.154;4.498;2024-01-16T11:44:43;100696.00;;;7.54;100.00
72414;BME280;60995;52.154;4.498;2024-01-16T11:47:07;100680.41;;;6.88;100.00
72414;BME280;60995;52.154;4.498;2024-01-16T11:49:24;100685.56;;;6.91;100.00
72414;BME280;60995;52.154;4.498;2024-01-16T11:51:41;100680.16;;;6.55;100.00
72414;BME280;60995;52.154;4.498;2024-01-16T11:53:57;100659.16;;;5.99;100.00
72414;BME280;60995;52.154;4.498;2024-01-16T11:59:20;100680.22;;;6.42;100.00
72414;BME280;60995;52.154;4.498;2024-01-16T12:02:02;100661.06;;;5.97;100.00
72414;BME280;60995;52.154;4.498;2024-01-16T12:04:26;100655.19;;;5.92;100.00
72414;BME280;60995;52.154;4.498;2024-01-16T12:06:43;100655.38;;;5.89;100.00
72414;BME280;60995;52.154;4.498;2024-01-16T12:09:16;100659.38;;;5.96;100.00